Time;durP1;ratioP1;P1;durP2;ratioP2;P2;SDS_P1;SDS_P2;PMS_P1;PMS_P2;Temp;Humidity;BMP_temperature;BMP_pressure;BME280_temperature;BME280_humidity;BME280_pressure;Samples;Min_cycle;Max_cycle;Signal;HPM_P1;HPM_P2
2021/12/17 00:08:34;;;;;;;257.70;37.63;;;;;;;;;;6306802;22;20027;-80
2021/12/17 00:11:19;;;;;;;212.10;35.53;;;8.40;99.90;;;;;;6305731;22;20342;-81
2021/12/17 00:14:04;;;;;;;129.15;29.58;;;;;;;;;;6307448;22;20345;-80
2021/12/17 00:16:49;;;;;;;227.40;39.25;;;;;;;;;;6306317;22;20045;-80
2021/12/17 00:44:10;;;;;;;188.80;32.40;;;8.40;99.90;;;;;;6306671;22;20197;-80
2021/12/17 00:52:58;;;;;;;135.00;27.58;;;;;;;;;;6306903;22;20087;-80
2021/12/17 00:55:43;;;;;;;136.20;26.77;;;;;;;;;;6306441;22;20069;-80
2021/12/17 00:58:27;;;;;;;130.38;27.88;;;;;;;;;;6306452;22;20495;-80
2021/12/17 01:01:12;;;;;;;155.43;29.63;;;8.40;99.90;;;;;;6306603;22;20014;-80
2021/12/17 01:03:57;;;;;;;148.27;28.70;;;;;;;;;;6306997;22;20026;-80
2021/12/17 01:06:42;;;;;;;175.50;30.38;;;8.40;99.90;;;;;;6304921;22;20487;-80
2021/12/17 01:09:27;;;;;;;145.85;26.90;;;;;;;;;;6304961;22;20392;-80
2021/12/17 01:12:14;;;;;;;128.15;24.35;;;8.40;99.90;;;;;;6306978;22;20079;-79
2021/12/17 01:14:58;;;;;;;129.35;25.02;;;8.40;99.90;;;;;;6306789;22;20010;-80
2021/12/17 01:17:44;;;;;;;158.98;27.00;;;8.70;99.90;;;;;;6306260;22;20034;-80
2021/12/17 01:35:44;;;;;;;82.37;19.23;;;8.40;99.90;;;;;;6306221;22;20018;-80
2021/12/17 01:44:24;;;;;;;86.30;19.77;;;8.50;99.90;;;;;;6306726;22;20021;-80
2021/12/17 01:47:11;;;;;;;79.07;18.67;;;9.30;99.90;;;;;;6306727;22;20069;-80
2021/12/17 01:56:29;;;;;;;60.80;15.60;;;8.40;99.90;;;;;;6305620;22;20019;-80
2021/12/17 01:59:35;;;;;;;75.15;17.70;;;8.40;99.90;;;;;;6305780;22;20511;-80
2021/12/17 02:02:20;;;;;;;79.30;17.83;;;;;;;;;;6305421;22;20381;-80
2021/12/17 02:05:05;;;;;;;56.40;14.98;;;8.40;99.90;;;;;;6306544;22;20013;-80
2021/12/17 02:07:53;;;;;;;67.03;16.42;;;8.40;99.90;;;;;;6304735;22;20041;-80
2021/12/17 02:20:09;;;;;;;83.55;17.13;;;8.40;99.90;;;;;;6307019;22;20075;-80
2021/12/17 02:32:25;;;;;;;62.85;15.25;;;8.40;99.90;;;;;;6308345;22;20083;-80
2021/12/17 02:37:55;;;;;;;58.20;16.02;;;8.40;99.90;;;;;;6307821;22;20076;-80
2021/12/17 02:46:45;;;;;;;62.95;17.08;;;8.40;99.90;;;;;;6307753;22;20019;-80
2021/12/17 02:49:30;;;;;;;;;;;8.50;99.90;;;;;;6308732;22;20022;-80
2021/12/17 02:52:16;;;;;;;48.83;14.43;;;8.40;99.90;;;;;;6308223;22;19953;-80
2021/12/17 02:55:01;;;;;;;65.45;15.73;;;8.40;99.90;;;;;;6306545;22;20019;-80
2021/12/17 02:57:46;;;;;;;63.13;16.25;;;8.40;99.90;;;;;;6307577;22;20065;-80
2021/12/17 03:00:32;;;;;;;56.47;14.13;;;8.40;99.90;;;;;;6308209;22;20014;-80
2021/12/17 03:03:20;;;;;;;62.47;15.63;;;8.40;99.90;;;;;;6308317;22;20014;-80
2021/12/17 03:06:04;;;;;;;71.45;16.63;;;8.50;99.90;;;;;;6306650;22;20073;-80
2021/12/17 03:08:49;;;;;;;64.50;16.23;;;8.40;99.90;;;;;;6307483;22;20026;-80
2021/12/17 03:11:33;;;;;;;66.47;15.80;;;8.40;99.90;;;;;;6308126;22;20065;-80
2021/12/17 03:14:17;;;;;;;;;;;8.40;99.90;;;;;;6307331;22;20014;-80
2021/12/17 03:17:09;;;;;;;71.43;15.98;;;8.60;99.90;;;;;;6307437;22;19994;-80
2021/12/17 03:25:40;;;;;;;42.75;13.20;;;8.60;99.90;;;;;;6307333;22;20104;-81
2021/12/17 03:28:25;;;;;;;65.75;15.90;;;8.40;99.90;;;;;;6306686;22;20048;-80
2021/12/17 03:31:10;;;;;;;77.05;15.75;;;8.40;99.90;;;;;;6307896;22;20068;-80
2021/12/17 03:34:10;;;;;;;47.00;13.85;;;8.40;99.90;;;;;;6306026;22;20014;-80
2021/12/17 03:36:57;;;;;;;52.35;14.00;;;8.40;99.90;;;;;;6307196;22;20061;-80
2021/12/17 03:39:41;;;;;;;39.83;13.90;;;8.40;99.90;;;;;;6307289;22;20067;-81
2021/12/17 03:42:25;;;;;;;;;;;8.40;99.90;;;;;;6308300;22;20014;-80
2021/12/17 03:45:09;;;;;;;60.00;15.38;;;8.40;99.90;;;;;;6306611;22;20297;-81
2021/12/17 03:47:54;;;;;;;54.58;14.77;;;8.40;99.90;;;;;;6283949;22;20128;-81
2021/12/17 03:50:38;;;;;;;59.03;14.38;;;8.40;99.90;;;;;;6307633;22;20060;-80
2021/12/17 03:53:22;;;;;;;57.67;15.30;;;8.40;99.90;;;;;;6307713;22;20017;-80
2021/12/17 03:56:07;;;;;;;39.13;12.60;;;8.40;99.90;;;;;;6307100;22;20337;-80
2021/12/17 03:58:53;;;;;;;56.15;15.45;;;8.40;99.90;;;;;;6307099;22;20080;-80
2021/12/17 04:01:39;;;;;;;56.00;14.77;;;8.40;99.90;;;;;;6306284;22;20053;-80
2021/12/17 04:04:23;;;;;;;36.80;11.80;;;8.40;99.90;;;;;;6306200;22;20376;-80
2021/12/17 04:07:07;;;;;;;;;;;8.40;99.90;;;;;;6307221;22;20025;-80
2021/12/17 04:09:51;;;;;;;34.60;12.00;;;8.40;99.90;;;;;;6307096;22;19980;-80
2021/12/17 04:13:00;;;;;;;34.67;12.65;;;8.40;99.90;;;;;;6307634;22;20365;-80
2021/12/17 04:15:43;;;;;;;30.98;10.05;;;8.40;99.90;;;;;;6306574;22;20301;-80
2021/12/17 04:18:29;;;;;;;31.58;10.65;;;8.70;99.90;;;;;;6307354;22;20023;-80
2021/12/17 04:21:15;;;;;;;50.00;13.80;;;8.40;99.90;;;;;;6307578;22;20018;-80
2021/12/17 04:23:59;;;;;;;31.40;11.52;;;8.40;99.90;;;;;;6306824;22;20015;-80
2021/12/17 04:26:43;;;;;;;26.20;9.98;;;8.40;99.90;;;;;;6306249;22;20388;-80
2021/12/17 04:29:27;;;;;;;30.98;10.43;;;8.30;99.90;;;;;;6305920;22;20048;-80
2021/12/17 04:32:12;;;;;;;25.92;10.15;;;8.30;99.90;;;;;;6306729;22;20018;-80
2021/12/17 04:34:56;;;;;;;35.10;11.27;;;8.20;99.90;;;;;;6306680;22;20010;-80
2021/12/17 04:37:40;;;;;;;;;;;8.30;99.90;;;;;;6307871;22;20022;-80
2021/12/17 04:40:25;;;;;;;27.15;10.02;;;8.00;99.90;;;;;;6307259;22;19909;-79
2021/12/17 04:46:15;;;;;;;25.67;10.07;;;8.00;99.90;;;;;;6305322;22;20022;-81
2021/12/17 04:57:20;;;;;;;23.77;9.60;;;7.90;99.90;;;;;;6306628;22;19974;-81
2021/12/17 04:58:10;;;;;;;41.22;11.55;;;8.00;99.90;;;;;;6306460;22;20596;-81
2021/12/17 05:00:57;;;;;;;29.33;10.70;;;7.90;99.90;;;;;;6306437;22;20341;-81
2021/12/17 05:03:42;;;;;;;35.47;11.13;;;8.00;99.90;;;;;;6263412;22;20014;-80
2021/12/17 05:06:29;;;;;;;40.33;11.68;;;8.00;99.90;;;;;;6307265;22;20022;-80
2021/12/17 05:09:28;;;;;;;53.35;12.77;;;8.00;99.90;;;;;;6306446;22;20312;-80
2021/12/17 05:18:29;;;;;;;64.88;12.60;;;8.00;99.90;;;;;;6307153;22;20064;-80
2021/12/17 05:21:14;;;;;;;54.17;12.90;;;8.00;99.90;;;;;;6306465;22;20448;-81
2021/12/17 05:23:58;;;;;;;56.97;12.93;;;8.00;99.90;;;;;;6305246;22;20364;-81
2021/12/17 05:26:42;;;;;;;31.85;11.02;;;8.00;99.90;;;;;;6305652;22;20019;-80
2021/12/17 05:29:27;;;;;;;38.33;12.25;;;8.00;99.90;;;;;;6305588;22;20027;-80
2021/12/17 05:32:11;;;;;;;23.77;10.25;;;8.00;99.90;;;;;;6306292;22;20018;-80
2021/12/17 05:34:56;;;;;;;48.00;12.52;;;8.10;99.90;;;;;;6306877;22;20015;-81
2021/12/17 05:37:39;;;;;;;;;;;8.10;99.90;;;;;;6306029;22;20523;-81
2021/12/17 05:40:24;;;;;;;39.60;11.13;;;8.00;99.90;;;;;;6306812;22;19914;-81
2021/12/17 05:43:09;;;;;;;39.95;13.10;;;8.10;99.90;;;;;;6306211;22;20090;-81
2021/12/17 05:48:41;;;;;;;39.28;13.38;;;8.10;99.90;;;;;;6308541;22;20030;-80
2021/12/17 05:51:25;;;;;;;49.05;13.43;;;8.10;99.90;;;;;;6308876;22;20010;-81
2021/12/17 05:54:10;;;;;;;41.47;11.93;;;8.00;99.90;;;;;;6307122;22;20067;-80
2021/12/17 05:56:54;;;;;;;52.75;14.57;;;8.10;99.90;;;;;;6307612;22;20329;-80
2021/12/17 05:59:38;;;;;;;59.60;13.70;;;8.10;99.90;;;;;;6307409;22;20049;-80
2021/12/17 06:02:23;;;;;;;50.55;12.95;;;8.10;99.90;;;;;;6307014;22;20383;-80
2021/12/17 06:05:07;;;;;;;56.05;13.80;;;8.10;99.90;;;;;;6307029;22;20068;-80
2021/12/17 06:07:52;;;;;;;30.80;11.65;;;8.00;99.90;;;;;;6285779;22;20029;-80
2021/12/17 06:10:37;;;;;;;44.42;13.50;;;8.00;99.90;;;;;;6308599;22;20053;-80
2021/12/17 06:13:21;;;;;;;59.92;14.73;;;8.10;99.90;;;;;;6308119;22;20086;-80
2021/12/17 06:16:05;;;;;;;;;;;8.10;99.90;;;;;;6308558;22;20015;-81
2021/12/17 06:18:49;;;;;;;41.88;12.27;;;8.00;99.90;;;;;;6307352;22;19918;-80
2021/12/17 06:21:34;;;;;;;37.22;11.90;;;8.00;99.90;;;;;;6285589;22;20037;-80
2021/12/17 06:24:18;;;;;;;35.95;11.82;;;8.00;99.90;;;;;;6306757;22;20014;-80
2021/12/17 06:27:02;;;;;;;40.95;12.05;;;8.00;99.90;;;;;;6307372;22;20013;-80
2021/12/17 06:29:47;;;;;;;33.22;11.68;;;7.80;99.90;;;;;;6307962;22;20330;-80
2021/12/17 06:32:31;;;;;;;38.83;12.10;;;8.00;99.90;;;;;;6308275;22;20014;-80
2021/12/17 06:35:16;;;;;;;33.17;11.95;;;7.90;99.90;;;;;;6307729;22;20018;-80
2021/12/17 06:38:01;;;;;;;42.22;12.82;;;7.90;99.90;;;;;;6308337;22;20093;-80
2021/12/17 06:40:45;;;;;;;42.30;12.25;;;8.00;99.90;;;;;;6306800;22;20042;-80
2021/12/17 06:43:37;;;;;;;40.63;13.15;;;8.00;99.90;;;;;;6306443;22;20082;-80
2021/12/17 06:46:32;;;;;;;34.90;12.27;;;8.20;99.90;;;;;;6306435;22;20341;-81
2021/12/17 07:01:13;;;;;;;35.95;12.27;;;7.90;99.90;;;;;;6306890;22;20041;-80
2021/12/17 07:22:20;;;;;;;46.97;13.25;;;8.00;99.90;;;;;;6307603;22;20040;-83
2021/12/17 07:34:00;;;;;;;43.70;14.02;;;7.90;99.90;;;;;;6307767;22;20026;-80
2021/12/17 07:38:35;;;;;;;43.22;13.52;;;8.00;99.90;;;;;;6286494;22;20041;-80
2021/12/17 07:39:48;;;;;;;38.85;13.27;;;8.00;99.90;;;;;;6307719;22;20060;-80
2021/12/17 07:42:32;;;;;;;32.42;12.38;;;7.90;99.90;;;;;;6306392;22;20022;-81
2021/12/17 07:45:17;;;;;;;47.72;14.68;;;8.00;99.90;;;;;;6305428;22;20018;-81
2021/12/17 07:48:01;;;;;;;;;;;8.00;99.90;;;;;;6306335;22;20088;-80
2021/12/17 07:50:45;;;;;;;47.90;14.02;;;8.00;99.90;;;;;;6306105;22;20241;-80
2021/12/17 07:53:30;;;;;;;37.70;14.20;;;7.90;99.90;;;;;;6283819;22;20089;-80
2021/12/17 07:56:18;;;;;;;42.60;15.07;;;8.00;99.90;;;;;;6307226;22;20019;-81
2021/12/17 07:59:02;;;;;;;39.80;13.85;;;8.00;99.90;;;;;;6307133;22;20015;-80
2021/12/17 08:01:46;;;;;;;;;;;8.00;99.90;;;;;;6307921;22;20057;-80
2021/12/17 08:04:31;;;;;;;37.63;13.15;;;8.00;99.90;;;;;;6307035;22;19922;-79
2021/12/17 08:07:14;;;;;;;;;;;8.00;99.90;;;;;;6306346;22;20038;-81
2021/12/17 08:09:59;;;;;;;31.95;12.55;;;8.00;99.90;;;;;;6305967;22;20389;-81
2021/12/17 08:12:43;;;;;;;35.15;11.88;;;8.00;99.90;;;;;;6305980;22;20104;-81
2021/12/17 08:15:36;;;;;;;31.40;12.63;;;8.00;99.90;;;;;;6307742;22;20072;-82
2021/12/17 08:32:40;;;;;;;34.60;12.55;;;8.10;99.90;;;;;;6306778;22;19910;-81
2021/12/17 08:35:25;;;;;;;34.78;12.98;;;8.10;99.90;;;;;;6306785;22;20432;-81
2021/12/17 08:38:10;;;;;;;34.80;12.82;;;8.10;99.90;;;;;;6306104;22;20064;-81
2021/12/17 08:40:54;;;;;;;30.88;12.30;;;8.20;99.90;;;;;;6284430;22;20015;-81
2021/12/17 08:43:40;;;;;;;30.63;12.88;;;8.20;99.90;;;;;;6283517;22;20436;-81
2021/12/17 08:46:24;;;;;;;31.52;12.55;;;8.20;99.90;;;;;;6305380;22;20034;-81
2021/12/17 08:49:09;;;;;;;34.03;13.07;;;8.20;99.90;;;;;;6307050;22;20026;-81
2021/12/17 08:51:54;;;;;;;30.77;12.05;;;8.20;99.90;;;;;;6284216;22;20329;-81
2021/12/17 08:54:38;;;;;;;29.13;11.63;;;8.20;99.90;;;;;;6306434;22;20013;-81
2021/12/17 08:57:22;;;;;;;24.85;11.38;;;8.30;99.90;;;;;;6305834;22;20064;-81
2021/12/17 09:00:09;;;;;;;30.85;11.95;;;8.30;99.90;;;;;;6309101;22;20086;-82
2021/12/17 09:02:59;;;;;;;27.20;11.85;;;8.30;99.90;;;;;;6307535;22;20045;-82
2021/12/17 09:05:45;;;;;;;32.97;12.57;;;8.40;99.90;;;;;;6305463;22;20603;-82
2021/12/17 09:08:29;;;;;;;31.48;12.15;;;8.30;99.90;;;;;;6306186;22;20021;-83
2021/12/17 09:11:13;;;;;;;26.85;11.35;;;8.30;99.90;;;;;;6307458;22;20018;-82
2021/12/17 09:14:00;;;;;;;27.15;12.48;;;8.40;99.90;;;;;;6305837;22;20018;-82
2021/12/17 09:16:44;;;;;;;29.98;13.43;;;8.40;99.90;;;;;;6305199;22;20018;-81
2021/12/17 09:19:28;;;;;;;;;;;8.40;99.90;;;;;;6307652;22;20094;-84
2021/12/17 09:22:12;;;;;;;30.92;12.63;;;8.40;99.90;;;;;;6306738;22;19950;-82
2021/12/17 09:24:56;;;;;;;30.60;12.95;;;8.40;99.90;;;;;;6306971;22;20030;-82
2021/12/17 09:27:41;;;;;;;25.27;12.75;;;8.40;99.90;;;;;;6305043;22;20030;-83
2021/12/17 09:30:26;;;;;;;29.15;12.23;;;8.50;99.90;;;;;;6306842;22;20077;-82
2021/12/17 09:33:10;;;;;;;;;;;8.50;99.90;;;;;;6307405;22;20042;-82
2021/12/17 09:35:54;;;;;;;26.20;12.73;;;8.50;99.90;;;;;;6305433;22;19914;-82
2021/12/17 09:38:38;;;;;;;;;;;8.60;99.90;;;;;;6283646;22;20018;-82
2021/12/17 09:41:23;;;;;;;;;;;8.50;99.90;;;;;;6307417;22;19910;-82
2021/12/17 09:44:07;;;;;;;27.95;11.60;;;8.50;99.90;;;;;;6306774;22;19910;-82
2021/12/17 09:46:57;;;;;;;33.65;13.77;;;8.60;99.90;;;;;;6304976;22;20077;-82
2021/12/17 09:49:41;;;;;;;22.50;10.88;;;8.60;99.90;;;;;;6306118;22;20018;-82
2021/12/17 09:52:26;;;;;;;25.73;11.27;;;8.60;99.90;;;;;;6305439;22;20018;-82
2021/12/17 09:55:10;;;;;;;26.63;12.05;;;8.60;99.90;;;;;;6305394;22;20018;-82
2021/12/17 09:57:54;;;;;;;;;;;8.70;99.90;;;;;;6306707;22;20017;-82
2021/12/17 10:00:39;;;;;;;27.70;11.95;;;8.70;99.90;;;;;;6306249;22;19914;-83
2021/12/17 10:03:23;;;;;;;;;;;8.70;99.90;;;;;;6305935;22;20169;-82
2021/12/17 10:06:21;;;;;;;25.30;11.73;;;8.80;99.90;;;;;;6306898;22;19976;-83
2021/12/17 10:09:05;;;;;;;20.60;10.85;;;8.70;99.90;;;;;;6307080;22;20069;-82
2021/12/17 10:12:04;;;;;;;24.67;11.50;;;8.80;99.90;;;;;;6304849;22;20022;-83
2021/12/17 10:15:17;;;;;;;22.63;11.15;;;8.80;99.90;;;;;;6306019;22;20468;-82
2021/12/17 10:18:02;;;;;;;24.80;11.32;;;8.80;99.90;;;;;;6306604;22;20019;-82
2021/12/17 10:20:56;;;;;;;23.52;12.57;;;8.80;99.90;;;;;;6306044;22;20018;-82
2021/12/17 10:23:42;;;;;;;25.30;12.02;;;8.80;99.90;;;;;;6306163;22;20018;-83
2021/12/17 10:26:28;;;;;;;24.23;10.90;;;8.90;99.90;;;;;;6305469;22;20091;-82
2021/12/17 10:29:21;;;;;;;27.10;11.25;;;9.00;99.90;;;;;;6305455;22;20448;-82
2021/12/17 10:32:07;;;;;;;25.42;12.10;;;9.00;99.90;;;;;;6306483;22;20053;-82
2021/12/17 10:35:12;;;;;;;23.55;11.65;;;9.00;99.90;;;;;;6306601;22;20021;-82
2021/12/17 10:38:05;;;;;;;28.45;12.65;;;9.00;99.90;;;;;;6307888;22;20013;-82
2021/12/17 10:40:55;;;;;;;28.23;11.02;;;9.00;99.90;;;;;;6307965;22;20060;-82
2021/12/17 10:43:48;;;;;;;30.45;13.07;;;9.80;99.90;;;;;;6306610;22;20014;-83
2021/12/17 10:46:32;;;;;;;28.23;11.88;;;9.10;99.90;;;;;;6307055;22;20048;-82
2021/12/17 10:49:23;;;;;;;27.75;11.93;;;9.10;99.90;;;;;;6306980;22;20022;-82
2021/12/17 10:52:15;;;;;;;27.35;11.10;;;9.10;99.90;;;;;;6308430;22;20018;-82
2021/12/17 10:55:15;;;;;;;28.15;11.35;;;9.20;99.90;;;;;;6306427;22;20516;-80
2021/12/17 10:58:02;;;;;;;30.10;13.00;;;9.20;99.90;;;;;;6307657;22;20037;-81
2021/12/17 11:00:54;;;;;;;32.72;11.63;;;9.20;99.90;;;;;;6307741;22;20346;-81
2021/12/17 11:03:41;;;;;;;25.05;11.13;;;9.20;99.90;;;;;;6308099;22;20042;-84
2021/12/17 11:06:41;;;;;;;24.75;10.85;;;9.20;99.90;;;;;;6306865;22;20041;-82
2021/12/17 11:09:50;;;;;;;28.23;10.80;;;9.20;99.90;;;;;;6308769;22;20334;-82
2021/12/17 11:12:42;;;;;;;20.85;10.32;;;9.20;99.90;;;;;;6307874;22;20014;-81
2021/12/17 11:15:30;;;;;;;25.35;10.05;;;9.20;99.90;;;;;;6308021;22;20014;-82
2021/12/17 11:18:15;;;;;;;22.33;9.73;;;9.30;99.90;;;;;;6308090;22;20015;-82
2021/12/17 11:20:59;;;;;;;20.02;9.80;;;9.30;99.90;;;;;;6306246;22;20494;-85
2021/12/17 11:23:45;;;;;;;26.17;10.43;;;9.20;99.90;;;;;;6306278;22;20050;-82
2021/12/17 11:26:29;;;;;;;19.80;9.05;;;9.30;99.90;;;;;;6285139;22;20014;-82
2021/12/17 11:29:17;;;;;;;23.02;10.10;;;9.30;99.90;;;;;;6305141;22;20095;-82
2021/12/17 11:32:04;;;;;;;18.95;9.15;;;9.30;99.90;;;;;;6306142;22;20053;-82
2021/12/17 11:34:48;;;;;;;22.92;9.88;;;9.40;99.90;;;;;;6307375;22;20038;-83
2021/12/17 11:37:33;;;;;;;17.58;9.55;;;9.40;99.90;;;;;;6306569;22;20014;-83
2021/12/17 11:40:45;;;;;;;21.30;10.48;;;9.40;99.90;;;;;;6306603;22;20385;-82
2021/12/17 11:43:54;;;;;;;22.92;9.90;;;9.40;99.90;;;;;;6307776;22;20463;-82
2021/12/17 11:46:39;;;;;;;17.38;8.85;;;9.40;99.90;;;;;;6307677;22;20014;-82
2021/12/17 11:49:25;;;;;;;22.92;9.75;;;9.40;99.90;;;;;;6306531;22;20018;-82
2021/12/17 11:52:09;;;;;;;19.45;9.15;;;9.40;99.90;;;;;;6305960;22;20338;-83
2021/12/17 11:54:53;;;;;;;21.23;9.93;;;9.40;99.90;;;;;;6307151;22;20018;-83
2021/12/17 11:57:41;;;;;;;;;;;9.40;99.90;;;;;;6308226;22;20060;-82
2021/12/17 12:00:41;;;;;;;18.77;8.38;;;9.40;99.90;;;;;;6306664;22;20336;-82
2021/12/17 12:03:25;;;;;;;15.48;8.75;;;9.50;99.90;;;;;;6307659;22;20010;-82
2021/12/17 12:06:33;;;;;;;18.70;8.05;;;9.50;99.90;;;;;;6307024;22;20187;-82
2021/12/17 12:09:59;;;;;;;12.60;7.22;;;9.50;99.90;;;;;;6307611;22;20015;-82
2021/12/17 12:12:46;;;;;;;15.02;6.57;;;9.60;99.90;;;;;;6307643;22;20445;-82
2021/12/17 12:15:32;;;;;;;13.52;6.22;;;9.70;99.90;;;;;;6307808;22;20010;-82
2021/12/17 12:18:18;;;;;;;12.00;6.57;;;9.70;99.90;;;;;;6307362;22;20018;-82
2021/12/17 12:21:02;;;;;;;12.25;5.95;;;9.80;99.90;;;;;;6305665;22;20019;-82
2021/12/17 12:23:51;;;;;;;12.52;6.28;;;9.70;99.90;;;;;;6307450;22;20103;-82
2021/12/17 12:26:37;;;;;;;10.23;5.10;;;9.80;99.90;;;;;;6307310;22;20441;-82
2021/12/17 12:29:23;;;;;;;11.30;4.60;;;9.70;99.90;;;;;;6307142;22;20449;-81
2021/12/17 12:32:17;;;;;;;10.75;5.25;;;9.70;99.90;;;;;;6306729;22;20064;-81
2021/12/17 12:35:08;;;;;;;9.90;4.80;;;9.70;99.90;;;;;;6305555;22;20018;-82
2021/12/17 12:38:16;;;;;;;8.50;4.82;;;9.70;99.90;;;;;;6305867;22;20042;-82
2021/12/17 12:41:03;;;;;;;11.75;4.82;;;9.70;99.90;;;;;;6306775;22;20014;-81
2021/12/17 12:43:48;;;;;;;8.48;4.55;;;9.70;99.90;;;;;;6306102;22;20441;-81
2021/12/17 12:46:56;;;;;;;7.72;4.20;;;9.70;99.90;;;;;;6305901;22;20014;-81
2021/12/17 12:49:56;;;;;;;4.53;2.90;;;9.70;99.90;;;;;;6307138;22;20018;-83
2021/12/17 12:52:55;;;;;;;4.15;2.55;;;9.70;99.90;;;;;;6307165;22;20337;-84
2021/12/17 12:55:44;;;;;;;4.82;2.53;;;9.80;99.90;;;;;;6306996;22;20015;-84
2021/12/17 12:58:28;;;;;;;8.10;3.17;;;9.80;99.90;;;;;;6305722;22;20014;-84
2021/12/17 13:01:15;;;;;;;5.60;3.30;;;9.80;99.90;;;;;;6283499;22;20073;-84
2021/12/17 13:04:06;;;;;;;5.88;3.33;;;9.70;99.90;;;;;;6306548;22;20014;-84
2021/12/17 13:06:51;;;;;;;5.95;3.17;;;9.70;99.90;;;;;;6306940;22;20045;-83
2021/12/17 13:09:42;;;;;;;5.28;2.85;;;9.70;99.90;;;;;;6305570;22;20468;-84
2021/12/17 13:12:27;;;;;;;5.65;3.10;;;9.70;99.90;;;;;;6307179;22;20038;-84
2021/12/17 13:15:39;;;;;;;7.00;3.28;;;9.70;99.90;;;;;;6306360;22;20026;-81
2021/12/17 13:24:18;;;;;;;5.53;3.45;;;9.60;99.90;;;;;;6306325;22;20472;-82
2021/12/17 13:27:09;;;;;;;5.45;3.40;;;9.60;99.90;;;;;;6305101;22;20049;-82
2021/12/17 13:29:58;;;;;;;6.18;4.10;;;9.60;99.90;;;;;;6306783;22;20050;-82
2021/12/17 13:32:45;;;;;;;8.27;4.00;;;9.60;99.90;;;;;;6306845;22;20034;-81
2021/12/17 13:35:33;;;;;;;6.15;4.25;;;9.60;99.90;;;;;;6305449;22;20091;-82
2021/12/17 13:38:18;;;;;;;9.45;4.32;;;9.60;99.90;;;;;;6306284;22;20038;-82
2021/12/17 13:41:09;;;;;;;6.50;4.28;;;9.60;99.90;;;;;;6305116;22;20515;-82
2021/12/17 13:43:55;;;;;;;8.88;4.57;;;9.50;99.90;;;;;;6306763;22;20384;-82
2021/12/17 13:46:39;;;;;;;6.80;4.43;;;9.50;99.90;;;;;;6305472;22;20026;-82
2021/12/17 13:49:23;;;;;;;;;;;9.50;99.90;;;;;;6306637;22;20026;-82
2021/12/17 13:52:09;;;;;;;8.10;4.38;;;9.40;99.90;;;;;;6306336;22;19933;-82
2021/12/17 13:54:55;;;;;;;7.55;4.63;;;9.50;99.90;;;;;;6305548;22;20010;-82
2021/12/17 13:57:41;;;;;;;7.65;4.30;;;9.40;99.90;;;;;;6305459;22;20025;-82
2021/12/17 14:00:53;;;;;;;8.10;4.60;;;9.40;99.90;;;;;;6304844;22;20010;-82
2021/12/17 14:03:41;;;;;;;11.15;5.45;;;9.40;99.90;;;;;;6306684;22;20026;-81
2021/12/17 14:06:27;;;;;;;9.98;5.30;;;9.40;99.90;;;;;;6305069;22;20535;-82
2021/12/17 14:09:15;;;;;;;7.63;4.80;;;9.40;99.90;;;;;;6308003;22;20436;-82
2021/12/17 14:12:12;;;;;;;7.53;4.93;;;9.40;99.90;;;;;;6307584;22;20014;-82
2021/12/17 14:14:58;;;;;;;7.78;4.93;;;9.40;99.90;;;;;;6308642;22;20489;-81
2021/12/17 14:17:46;;;;;;;8.68;5.25;;;9.40;99.90;;;;;;6308831;22;20057;-81
2021/12/17 14:20:46;;;;;;;7.82;5.32;;;9.40;99.90;;;;;;6308406;22;20014;-81
2021/12/17 14:23:37;;;;;;;8.02;5.03;;;9.40;99.90;;;;;;6308205;22;20033;-82
2021/12/17 14:26:28;;;;;;;8.15;4.93;;;9.40;99.90;;;;;;6306847;22;20017;-82
2021/12/17 14:29:12;;;;;;;8.95;5.53;;;9.40;99.90;;;;;;6307981;22;20140;-82
2021/12/17 14:32:00;;;;;;;7.57;5.43;;;9.30;99.90;;;;;;6308494;22;20018;-82
2021/12/17 14:34:44;;;;;;;7.72;4.50;;;9.30;99.90;;;;;;6307247;22;20040;-81
2021/12/17 14:37:30;;;;;;;6.22;4.60;;;9.30;99.90;;;;;;6307930;22;20092;-81
2021/12/17 14:40:28;;;;;;;5.28;4.05;;;9.30;99.90;;;;;;6306584;22;20060;-82
2021/12/17 14:43:22;;;;;;;8.57;4.70;;;9.30;99.90;;;;;;6307924;22;20010;-82
2021/12/17 14:46:19;;;;;;;;;;;9.30;99.90;;;;;;6308866;22;20013;-82
2021/12/17 14:49:17;;;;;;;9.38;4.70;;;9.30;99.90;;;;;;6308374;22;19934;-83
2021/12/17 15:06:23;;;;;;;8.30;6.07;;;9.20;99.90;;;;;;6307552;22;20026;-82
2021/12/17 15:09:08;;;;;;;10.70;6.57;;;9.20;99.90;;;;;;6306549;22;20022;-81
2021/12/17 15:11:58;;;;;;;9.77;6.03;;;9.20;99.90;;;;;;6306801;22;20071;-82
2021/12/17 15:14:42;;;;;;;9.60;6.50;;;9.20;99.90;;;;;;6308132;22;20064;-82
2021/12/17 15:17:27;;;;;;;10.35;6.55;;;9.20;99.90;;;;;;6307493;22;20026;-81
2021/12/17 15:20:13;;;;;;;8.68;5.82;;;9.30;99.90;;;;;;6262711;22;20068;-81
2021/12/17 15:22:58;;;;;;;9.90;6.32;;;9.20;99.90;;;;;;6308035;22;20448;-81
2021/12/17 15:25:43;;;;;;;9.95;5.70;;;9.30;99.90;;;;;;6307882;22;20032;-82
2021/12/17 15:28:27;;;;;;;9.00;5.93;;;9.20;99.90;;;;;;6306046;22;20396;-82
2021/12/17 15:31:12;;;;;;;8.65;5.78;;;9.20;99.90;;;;;;6306848;22;20014;-82
2021/12/17 15:33:56;;;;;;;9.45;6.47;;;9.20;99.90;;;;;;6306530;22;20016;-82
2021/12/17 15:36:40;;;;;;;;;;;9.30;99.90;;;;;;6306791;22;20018;-82
2021/12/17 15:39:26;;;;;;;8.88;6.00;;;9.20;99.90;;;;;;6306110;22;19949;-82
2021/12/17 15:42:11;;;;;;;9.88;5.85;;;9.30;99.90;;;;;;6306516;22;20052;-82
2021/12/17 15:44:55;;;;;;;8.52;6.03;;;9.20;99.90;;;;;;6307630;22;20026;-82
2021/12/17 15:47:39;;;;;;;9.20;6.05;;;9.20;99.90;;;;;;6307201;22;20502;-82
2021/12/17 15:50:24;;;;;;;7.47;5.72;;;;;;;;;;6307137;22;20026;-82
2021/12/17 15:53:09;;;;;;;10.82;6.40;;;9.20;99.90;;;;;;6307666;22;20026;-82
2021/12/17 15:55:54;;;;;;;8.38;5.93;;;9.20;99.90;;;;;;6307636;22;20017;-82
2021/12/17 15:58:38;;;;;;;9.95;6.38;;;;;;;;;;6307117;22;20042;-82
2021/12/17 16:01:23;;;;;;;8.23;5.93;;;;;;;;;;6305786;22;20014;-82
2021/12/17 16:04:08;;;;;;;11.60;6.28;;;;;;;;;;6306560;22;20091;-81
2021/12/17 16:06:52;;;;;;;10.65;6.13;;;9.20;99.90;;;;;;6306264;22;20017;-81
2021/12/17 16:21:06;;;;;;;;;;;9.60;99.90;;;;;;6307924;22;20054;-82
2021/12/17 16:23:54;;;;;;;12.57;6.60;;;9.20;99.90;;;;;;6306120;22;19945;-82
2021/12/17 16:26:38;;;;;;;9.77;6.78;;;9.10;99.90;;;;;;6306773;22;20018;-82
2021/12/17 16:29:23;;;;;;;12.73;7.32;;;9.10;99.90;;;;;;6283779;22;20054;-82
2021/12/17 16:32:07;;;;;;;16.52;8.30;;;9.10;99.90;;;;;;6305722;22;20069;-82
2021/12/17 16:34:51;;;;;;;11.05;6.97;;;9.20;99.90;;;;;;6284207;22;20019;-82
2021/12/17 16:37:35;;;;;;;;;;;9.10;99.90;;;;;;6307218;22;20042;-83
2021/12/17 16:40:20;;;;;;;10.98;7.55;;;;;;;;;;6305605;22;19968;-81
2021/12/17 16:43:05;;;;;;;12.45;6.82;;;9.10;99.90;;;;;;6307013;22;20068;-83
2021/12/17 16:47:01;;;;;;;13.68;7.97;;;9.10;99.90;;;;;;6306872;22;20018;-82
2021/12/17 16:48:57;;;;;;;13.93;7.97;;;9.10;99.90;;;;;;6306180;22;20076;-82
2021/12/17 16:51:41;;;;;;;;;;;9.20;99.90;;;;;;6307018;22;20022;-83
2021/12/17 16:54:25;;;;;;;10.80;7.75;;;;;;;;;;6306860;22;20371;-82
2021/12/17 16:57:10;;;;;;;14.30;7.93;;;9.10;99.90;;;;;;6306901;22;20447;-82
2021/12/17 16:59:55;;;;;;;13.65;8.07;;;9.10;99.90;;;;;;6305682;22;20021;-82
2021/12/17 17:02:40;;;;;;;13.50;7.40;;;;;;;;;;6306517;22;20014;-82
2021/12/17 17:05:24;;;;;;;13.52;7.38;;;9.10;99.90;;;;;;6306980;22;20014;-82
2021/12/17 17:08:09;;;;;;;11.35;6.95;;;9.20;99.90;;;;;;6306968;22;20100;-82
2021/12/17 17:10:59;;;;;;;11.68;6.05;;;9.10;99.90;;;;;;6307175;22;20129;-81
2021/12/17 17:13:44;;;;;;;11.20;5.68;;;9.10;99.90;;;;;;6284814;22;20018;-81
2021/12/17 17:16:28;;;;;;;9.65;5.10;;;9.10;99.90;;;;;;6305484;22;20068;-81
2021/12/17 17:19:13;;;;;;;7.63;4.40;;;9.10;99.90;;;;;;6306738;22;20108;-81
2021/12/17 17:21:57;;;;;;;9.85;4.50;;;;;;;;;;6305460;22;20345;-82
2021/12/17 17:24:42;;;;;;;9.80;4.45;;;;;;;;;;6305070;22;20057;-81
2021/12/17 17:27:27;;;;;;;8.00;4.15;;;;;;;;;;6305589;22;20011;-81
2021/12/17 17:30:11;;;;;;;10.35;4.80;;;8.50;99.90;;;;;;6305353;22;20076;-81
2021/12/17 17:32:55;;;;;;;10.23;4.32;;;8.90;99.90;;;;;;6306380;22;20014;-82
2021/12/17 17:35:39;;;;;;;;;;;8.90;99.90;;;;;;6306601;22;20443;-82
2021/12/17 17:38:24;;;;;;;9.20;5.35;;;;;;;;;;6306641;22;19954;-81
2021/12/17 17:41:08;;;;;;;13.68;8.05;;;8.90;99.90;;;;;;6306573;22;20050;-82
2021/12/17 17:43:54;;;;;;;10.50;5.78;;;8.80;99.90;;;;;;6307331;22;20050;-82
2021/12/17 17:46:38;;;;;;;10.02;5.18;;;;;;;;;;6306946;22;20076;-82
2021/12/17 17:49:23;;;;;;;10.70;5.82;;;;;;;;;;6308561;22;20095;-81
2021/12/17 17:52:08;;;;;;;12.75;5.75;;;;;;;;;;6307388;22;20073;-81
2021/12/17 17:54:53;;;;;;;13.07;6.18;;;;;;;;;;6308108;22;20018;-82
2021/12/17 17:57:38;;;;;;;10.13;5.70;;;;;;;;;;6308120;22;20056;-82
2021/12/17 18:00:24;;;;;;;12.23;5.82;;;8.80;99.90;;;;;;6307337;22;20014;-81
2021/12/17 18:03:09;;;;;;;12.82;6.40;;;10.40;99.90;;;;;;6308622;22;20014;-81
2021/12/17 18:05:54;;;;;;;8.88;4.85;;;;;;;;;;6306909;22;20612;-81